Aviation Digital Data Service (ADDS)

Output produced by METARs form (0918 UTC 23 January 2019)
found at http://aviationweather.gov/metar/data/
 
METAR text: EYKA 230850Z 08001KT 3900 BR FEW012 M06/M07 Q1014 R08/29//95
Conditions at: EYKA (KAUNAS , LT) observed 0850 UTC 23 January 2019
Temperature: -6.0°C (21°F)
Dewpoint: -7.0°C (19°F) [RH = 93%]
Pressure (altimeter): 29.94 inches Hg (1014.0 mb)
Winds: from the E (80 degrees) at 1 MPH (1 knots; 0.5 m/s)
Visibility: 2.42 miles (3.89 km)
Ceiling: at least 12,000 feet AGL
Clouds: few clouds at 1200 feet AGL
Weather: BR  (mist)

METAR text: EYKA 230820Z 00000KT 4600 BR BKN012 M06/M07 Q1014 R08/29//95
Conditions at: EYKA (KAUNAS , LT) observed 0820 UTC 23 January 2019
Temperature: -6.0°C (21°F)
Dewpoint: -7.0°C (19°F) [RH = 93%]
Pressure (altimeter): 29.94 inches Hg (1014.0 mb)
Winds: calm
Visibility: 2.86 miles (4.60 km)
Ceiling: 1200 feet AGL
Clouds: broken clouds at 1200 feet AGL
Weather: BR  (mist)

METAR text: EYKA 230750Z 00000KT 5000 BR OVC015 M07/M08 Q1014 R08/29//95
Conditions at: EYKA (KAUNAS , LT) observed 0750 UTC 23 January 2019
Temperature: -7.0°C (19°F)
Dewpoint: -8.0°C (18°F) [RH = 93%]
Pressure (altimeter): 29.94 inches Hg (1014.0 mb)
Winds: calm
Visibility: 3 miles ( 5 km)
Ceiling: 1500 feet AGL
Clouds: overcast cloud deck at 1500 feet AGL
Weather: BR  (mist)

METAR text: EYKA 230720Z VRB01KT 5000 BR OVC015 M08/M09 Q1014 R08/29//95
Conditions at: EYKA (KAUNAS , LT) observed 0720 UTC 23 January 2019
Temperature: -8.0°C (18°F)
Dewpoint: -9.0°C (16°F) [RH = 92%]
Pressure (altimeter): 29.94 inches Hg (1014.0 mb)
Winds: variable direction winds at 1 MPH (1 knots; 0.5 m/s)
Visibility: 3 miles ( 5 km)
Ceiling: 1500 feet AGL
Clouds: overcast cloud deck at 1500 feet AGL
Weather: BR  (mist)

Forecast for: EYKA (KAUNAS , LT)
Text: TAF EYKA 230501Z 2306/2406 17006KT 5000 BR BKN008 OVC015
Forecast period: 0600 to 0900 UTC 23 January 2019
Forecast type: FROM: standard forecast or significant change
Winds: from the S (170 degrees) at 7 MPH (6 knots; 3.1 m/s)
Visibility: 3 miles (5 km)
Ceiling: 800 feet AGL
Clouds: broken clouds at 800 feet AGL
overcast cloud deck at 1500 feet AGL
Weather: BR  (mist)
Text: TEMPO 2306/2309 1500 OVC005
Forecast period: 0600 to 0900 UTC 23 January 2019
Forecast type: TEMPORARY: The following changes expected for less than half the time period
Visibility: 0.93 miles (1.50 km)
Ceiling: 500 feet AGL
Clouds: overcast cloud deck at 500 feet AGL
Weather: no significant weather forecast for this period
Text: BECMG 2309/2310 7000 SCT010 OVC020
Forecast period: 0900 UTC 23 January 2019 to 0600 UTC 24 January 2019
Forecast type: BECOMING: Conditions expected to become as follows by 1000 UTC 23 January 2019
Winds: from the S (170 degrees) at 7 MPH (6 knots; 3.1 m/s)
Visibility: 4 miles (7 km)
Ceiling: 2000 feet AGL
Clouds: scattered clouds at 1000 feet AGL
overcast cloud deck at 2000 feet AGL
Weather: BR  (mist)